Sand Spring Valley, Nevada Weather observations

Data are for 10 minute period ending at time listed.
 Day   Time   Solar   Ave.   Ave.  Ave.  Vector  Max.   Baro.   Total    
  of    of     Rad.   Air    Rel.  Wind   Wind   Wind  Press.  Precip.   
Year   Day            Temp.  Hum.  Speed  Dir.   Gust                    
2014   (PST)  Kw/m2    F      %     mph   deg.    mph    mb.     in.     
-------------------------------------------------------------------------
 209    2:00   0.00   64.9    74    1.0    92     5.3   857.8    0.00 
 209    2:10   0.00   66.6    67    2.2   115     5.2   857.9    0.00 
 209    2:20   0.00   66.2    73    3.0   117     4.4   858.0    0.00 
 209    2:30   0.00   65.6    76    2.6   135     4.2   858.1    0.00 
 209    2:40   0.00   66.3    72    2.2   149     3.7   858.1    0.00 
 209    2:50   0.00   67.7    67    3.5   204     5.5   858.3    0.00 
 209    3:00   0.00   66.4    70    3.2   207     5.1   858.4    0.00 
 209    3:10   0.00   70.1    53    2.7   169     4.5   858.5    0.00 
 209    3:20   0.00   70.7    52    2.3   198     5.1   858.5    0.00 
 209    3:30   0.00   69.3    55    1.5   130     4.5   858.6    0.00 
 209    3:40   0.00   68.6    56    1.1   197     4.0   858.7    0.00 
 209    3:50   0.00   69.5    54    0.3    84     1.8   858.8    0.00 
 209    4:00   0.00   68.9    55    2.4   256     4.6   858.8    0.00 
 209    4:10   0.00   68.6    54    1.7   264     4.3   858.7    0.00 
 209    4:20   0.00   69.1    55    1.7   214     6.0   858.7    0.00 
 209    4:30   0.00   67.2    60    0.7   204     4.2   858.7    0.00 
 209    4:40   0.00   67.4    60    2.7   242     6.2   858.6    0.00 
 209    4:50   0.00   66.5    64    1.7   271     3.3   858.6    0.00 
 209    5:00   0.00   66.0    67    4.1   235     5.0   858.5    0.00 
 209    5:10   0.01   64.7    74    3.3   258     3.9   858.4    0.00 
 209    5:20   0.01   65.0    73    3.4   252     6.0   858.4    0.00 
 209    5:30   0.02   65.9    71    0.5   264     2.0   858.6    0.00 
 209    5:40   0.04   65.6    74    2.0   214     3.9   858.7    0.00 
 209    5:50   0.05   65.1    77    0.4   109     2.9   858.8    0.00 
 209    6:00   0.07   65.1    80    1.5    83     3.8   858.8    0.00 
 209    6:10   0.10   65.6    75    0.3    71     2.3   858.9    0.00 
 209    6:20   0.13   66.2    75    2.0   198     3.1   859.1    0.00 
 209    6:30   0.16   66.4    79    3.8   118     5.3   859.0    0.00 
 209    6:40   0.15   67.1    75    2.4   146     4.2   859.1    0.00 
 209    6:50   0.15   67.8    74    2.6   132     3.5   859.1    0.00 
 209    7:00   0.14   68.6    70    0.5   156     2.6   859.1    0.00 
 209    7:10   0.13   69.2    74    0.9   152     2.3   859.2    0.00 
 209    7:20   0.14   68.9    74    1.8    87     2.8   859.3    0.00 
 209    7:30   0.12   69.2    72    0.5    62     1.9   859.4    0.00 
 209    7:40   0.14   69.7    71    0.9    58     4.0   859.5    0.00 
 209    7:50   0.15   70.2    64    2.9    33     4.2   859.6    0.00 
 209    8:00   0.14   70.4    64    2.0    34     3.9   859.6    0.00 
 209    8:10   0.20   71.3    64    0.5    38     1.8   859.6    0.00 
 209    8:20   0.23   71.7    62    1.8    47     2.7   859.6    0.00 
 209    8:30   0.22   71.9    64    2.5    50     4.3   859.6    0.00 
 209    8:40   0.28   72.1    62    4.0    60     6.4   859.7    0.00 
 209    8:50   0.24   72.2    61    6.6   110    11.1   859.7    0.00 
 209    9:00   0.27   72.1    62    6.6   128    10.2   859.7    0.00 
 209    9:10   0.31   72.1    60    7.6   125    14.8   859.7    0.00 
 209    9:20   0.40   72.1    61    9.1   133    14.3   859.7    0.00 
 209    9:30   0.41   72.6    59    9.5   128    12.7   859.7    0.00 
 209    9:40   0.32   72.1    61    8.8   131    13.9   859.8    0.00 
 209    9:50   0.29   72.0    62    8.5   127    12.7   859.8    0.00 
 209   10:00   0.21   71.7    62    8.8   131    13.4   859.8    0.00 
 209   10:10   0.26   71.8    62    8.7   124    13.2   859.8    0.00 
 209   10:20   0.26   71.8    62    8.7   126    14.1   859.8    0.00 
 209   10:30   0.28   72.1    62    7.4   122    10.7   859.8    0.00 
 209   10:40   0.39   72.8    61    8.3   127    12.3   859.8    0.00 
 209   10:50   0.68   74.1    60    8.3   122    13.0   859.7    0.00 
 209   11:00   0.66   75.9    57    7.4   115    11.8   859.7    0.00 
 209   11:10   0.50   75.6    58    7.6   114    13.2   859.6    0.00 
 209   11:20   0.59   75.6    56    9.7   120    14.1   859.5    0.00 
 209   11:30   0.49   75.2    56    9.4   128    15.9   859.4    0.00 
 209   11:40   0.45   74.8    57    9.3   132    13.7   859.4    0.00 
 209   11:50   0.31   75.5    56    7.9   137    13.0   859.4    0.00 
 209   12:00   0.14   74.4    54    6.2   194    10.1   859.4    0.00 
 209   12:10   0.10   72.2    58   11.8   197    19.8   859.3    0.00 
 209   12:20   0.17   73.1    53   11.9   186    19.0   859.4    0.00 
 209   12:30   0.24   73.7    53   12.5   187    18.5   859.3    0.00 
 209   12:40   0.31   73.9    54   10.6   192    15.5   859.3    0.00 
 209   12:50   0.34   74.1    58    8.6   195    12.5   859.3    0.00 
 209   13:00   0.30   72.9    62    8.4   198    14.8   859.3    0.00 
 209   13:10   0.35   73.0    62    8.2   197    15.1   859.2    0.00 
 209   13:20   0.54   74.1    62    7.4   210    11.8   859.2    0.00 
 209   13:30   0.38   73.7    60    7.3   208    10.5   859.2    0.00 
 209   13:40   0.44   73.1    62    6.3   219     8.9   859.2    0.00 
 209   13:50   0.65   74.9    58    4.5   219     6.9   859.1    0.00 
 209   14:00   0.64   76.9    51    3.8   221     6.6   858.9    0.00 
 209   14:10   0.34   76.7    50    3.3   237     7.9   858.8    0.00 
 209   14:20   0.38   77.3    45    1.3   255     3.1   858.6    0.00 
 209   14:30   0.47   79.2    40    0.6   165     2.2   858.5    0.00 
 209   14:40   0.79   79.1    44    4.3    37     7.7   858.4    0.00 
 209   14:50   0.72   79.4    41    4.7     0     8.1   858.1    0.00 
 209   15:00   0.75   79.2    44    4.3   318     7.6   858.0    0.00 
 209   15:10   0.69   78.9    41    4.6   335     9.3   857.9    0.00 
 209   15:20   0.43   79.3    39    3.2    16     5.8   857.8    0.00 
 209   15:30   0.41   78.9    41    3.6     2     7.5   857.8    0.00 
 209   15:40   0.45   78.6    45    5.3   337    10.0   857.7    0.00 
 209   15:50   0.35   78.4    40    2.8   329     6.2   857.6    0.00 
 209   16:00   0.34   78.6    42    3.0   321     4.5   857.6    0.00 
 209   16:10   0.25   78.3    45    2.8   316     5.0   857.5    0.00 
 209   16:20   0.27   78.6    43    2.2   344     5.4   857.5    0.00 
 209   16:30   0.23   78.6    44    3.0   329     6.1   857.5    0.00 
 209   16:40   0.22   78.8    41    4.4   338     6.7   857.3    0.00 
 209   16:50   0.17   79.0    42    4.0   352     6.3   857.2    0.00 
 209   17:00   0.12   78.0    46    3.9   340     6.2   857.2    0.00 
 209   17:10   0.06   76.8    48    3.8   337     5.3   857.3    0.00 
 209   17:20   0.04   74.6    56    4.3   328     5.3   857.4    0.00 
 209   17:30   0.03   73.8    58    4.0   326     5.5   857.4    0.00 
 209   17:40   0.02   71.5    62   10.2   245    18.9   857.7    0.00 
 209   17:50   0.02   69.5    68    9.3   230    13.3   857.7    0.02 
 209   18:00   0.02   67.1    78    6.0   214     8.0   857.7    0.00 
 209   18:10   0.01   66.7    83    5.0   187     7.6   857.7    0.00 
 209   18:20   0.01   66.2    86    5.0   195     6.1   857.8    0.00 
 209   18:30   0.01   67.1    83    5.3   190     6.1   857.9    0.00 
 209   18:40   0.01   68.4    79    5.0   178     6.6   857.9    0.00 
 209   18:50   0.00   68.6    80    3.9   176     5.0   858.0    0.00 
 209   19:00   0.00   68.2    81    3.8   160     5.2   858.0    0.00 
 209   19:10   0.00   68.0    84    1.7   170     3.5   858.0    0.00 
 209   19:20   0.00   68.7    82    2.6   171     3.9   858.0    0.00 
 209   19:30   0.00   68.5    82    0.5   172     1.6   858.0    0.00 
 209   19:40   0.00   68.3    81    3.2   146     7.2   858.1    0.00 
 209   19:50   0.00   68.2    72    6.3    95    13.4   858.4    0.00 
 209   20:00   0.00   68.0    77    7.5   284    13.0   858.9    0.01 
 209   20:10   0.00   66.9    75   10.7   319    16.8   858.9    0.01 
 209   20:20   0.00   65.3    81    5.9   312    12.9   859.0    0.01 
 209   20:30   0.00   64.6    84    6.4   322     9.9   859.1    0.00 
 209   20:40   0.00   64.4    85    3.2   323     7.7   859.2    0.00 
 209   20:50   0.00   64.8    84    2.8     0     4.3   859.2    0.00 
 209   21:00   0.00   64.7    83    2.8    62     5.3   859.1    0.00 
 209   21:10   0.00   63.6    88    5.4   146     7.4   859.2    0.00 
 209   21:20   0.00   63.7    89    5.7   208     7.8   859.3    0.00 
 209   21:30   0.00   63.5    90    4.9   217     6.1   859.4    0.00 
 209   21:40   0.00   64.0    86    6.0   277     9.3   859.3    0.00 
 209   21:50   0.00   63.9    85    4.4   290     6.9   859.1    0.00 
 209   22:00   0.00   63.4    86    4.1   301     7.1   858.9    0.00 
 209   22:10   0.00   62.9    87    3.8   260     5.5   858.9    0.00 
 209   22:20   0.00   62.7    87    4.0   278     5.5   858.8    0.00 
 209   22:30   0.00   62.6    88    3.3   281     4.7   858.7    0.00 
 209   22:40   0.00   62.8    87    3.0   306     4.0   858.8    0.00 
 209   22:50   0.00   62.8    86    3.1   309     4.4   858.8    0.00 
 209   23:00   0.00   62.8    86    2.7   281     3.8   858.7    0.00 
 209   23:10   0.00   62.8    84    1.2   249     2.0   858.8    0.00 
 209   23:20   0.00   62.8    84    2.9   201     5.7   858.8    0.00 
 209   23:30   0.00   62.5    85    3.1   209     4.2   858.7    0.00 
 209   23:40   0.00   62.1    88    3.2   194     5.2   858.7    0.01 
 209   23:50   0.00   62.3    90    0.9   176     2.7   858.5    0.00 
 210    0:00   0.00   62.0    90    1.2   211     3.2   858.5    0.01 
 210    0:10   0.00   61.6    90    2.2   279     3.8   858.5    0.00 
 210    0:20   0.00   61.9    90    1.4   211     3.3   858.4    0.00 
 210    0:30   0.00   62.2    88    1.6   164     2.9   858.4    0.01 
 210    0:40   0.00   62.5    89    1.9   171     2.9   858.3    0.00 
 210    0:50   0.00   62.3    89    0.5    76     1.6   858.2    0.00 
 210    1:00   0.00   62.2    89    0.4    28     1.0   858.2    0.00 
 210    1:10   0.00   62.0    90    0.1    36     0.9   858.2    0.00 
 210    1:20   0.00   62.2    92    2.2    93     3.4   858.2    0.00 
 210    1:30   0.00   62.3    92    0.3    72     1.5   858.0    0.00 
 210    1:40   0.00   62.5    92    0.0     0     0.0   857.9    0.00 
 210    1:50   0.00   62.5    92    0.1    75     0.7   857.9    0.00 

Return to Sand Spring Valley graphs page.


Western Regional Climate Center,wrcc@dri.edu